Time;durP1;ratioP1;P1;durP2;ratioP2;P2;SDS_P1;SDS_P2;PMS_P1;PMS_P2;Temp;Humidity;BMP_temperature;BMP_pressure;BME280_temperature;BME280_humidity;BME280_pressure;Samples;Min_cycle;Max_cycle;Signal;HPM_P1;HPM_P2
2023/05/10 08:06:19;;;;;;;23.30;13.23;;;;;;;12.18;100.00;100883.00;5069105;28;20397;-74
2023/05/10 08:08:53;;;;;;;23.05;14.82;;;;;;;12.23;100.00;100896.66;5081480;28;20087;-73
2023/05/10 08:11:20;;;;;;;21.52;14.23;;;;;;;12.27;100.00;100890.75;5089917;28;20060;-74
2023/05/10 08:13:45;;;;;;;18.45;13.23;;;;;;;12.26;100.00;100880.97;5089676;28;20024;-71
2023/05/10 08:16:11;;;;;;;17.25;12.95;;;;;;;12.31;100.00;100889.25;5070113;28;20064;-75
2023/05/10 08:18:37;;;;;;;16.98;12.30;;;;;;;12.36;100.00;100900.19;5068142;28;20052;-72
2023/05/10 08:21:02;;;;;;;16.88;12.50;;;;;;;12.38;100.00;100893.47;5069503;28;20376;-74
2023/05/10 08:23:28;;;;;;;20.77;12.43;;;;;;;12.46;100.00;100895.00;5065485;28;20035;-73
2023/05/10 08:25:53;;;;;;;19.48;11.60;;;;;;;12.52;100.00;100904.91;5049600;28;20083;-74
2023/05/10 08:28:18;;;;;;;17.98;11.18;;;;;;;12.58;100.00;100903.97;5048340;28;20031;-74
2023/05/10 08:30:44;;;;;;;16.15;9.68;;;;;;;12.61;100.00;100902.69;5047993;28;20056;-77
2023/05/10 08:33:09;;;;;;;18.52;10.38;;;;;;;12.60;100.00;100909.16;5049517;28;20384;-77
2023/05/10 08:35:34;;;;;;;13.95;9.10;;;;;;;12.67;100.00;100906.34;5064786;28;20040;-70
2023/05/10 08:38:00;;;;;;;14.20;9.55;;;;;;;12.75;100.00;100900.53;5048697;28;20029;-75
2023/05/10 08:40:26;;;;;;;15.68;8.90;;;;;;;12.77;100.00;100906.53;5053688;28;20026;-72
2023/05/10 08:42:58;;;;;;;13.48;8.80;;;;;;;12.76;100.00;100902.19;5048897;28;20025;-74
2023/05/10 08:45:26;;;;;;;13.45;7.93;;;;;;;12.82;100.00;100903.97;5046507;28;20488;-75
2023/05/10 08:47:52;;;;;;;16.10;6.88;;;;;;;12.88;100.00;100903.00;5047590;28;20384;-71
2023/05/10 08:50:21;;;;;;;12.13;6.85;;;;;;;12.97;100.00;100917.03;5047191;28;20489;-75
2023/05/10 08:52:49;;;;;;;8.70;5.80;;;;;;;13.02;100.00;100913.59;5048411;28;20033;-77
2023/05/10 08:55:15;;;;;;;7.60;4.97;;;;;;;13.16;100.00;100916.88;5068332;28;20444;-73
2023/05/10 08:57:41;;;;;;;9.13;5.43;;;;;;;13.19;100.00;100909.06;5065638;28;20033;-75
2023/05/10 09:00:08;;;;;;;9.80;6.30;;;;;;;13.29;100.00;100922.84;5055353;28;20037;-74
2023/05/10 09:02:34;;;;;;;8.75;5.97;;;;;;;13.34;100.00;100911.28;5044085;28;20072;-76
2023/05/10 09:05:00;;;;;;;8.93;5.90;;;;;;;13.43;100.00;100914.44;5037559;28;20433;-73
2023/05/10 09:07:25;;;;;;;7.72;5.40;;;;;;;13.54;100.00;100916.31;5036778;28;20041;-75
2023/05/10 09:09:52;;;;;;;7.65;5.90;;;;;;;13.73;100.00;100919.63;5047266;28;20029;-75
2023/05/10 09:12:17;;;;;;;8.75;5.28;;;;;;;13.79;100.00;100918.66;5046266;28;20504;-73
2023/05/10 09:14:45;;;;;;;8.70;5.68;;;;;;;13.88;100.00;100924.50;5046294;28;20124;-76
2023/05/10 09:17:10;;;;;;;8.45;6.03;;;;;;;13.92;100.00;100917.53;5036490;28;20422;-78
2023/05/10 09:19:36;;;;;;;6.82;5.55;;;;;;;13.98;100.00;100921.97;5035229;28;20033;-76
2023/05/10 09:22:02;;;;;;;7.43;5.80;;;;;;;14.02;100.00;100921.47;5035675;28;20033;-75
2023/05/10 09:24:30;;;;;;;6.53;5.50;;;;;;;14.09;100.00;100919.44;5036164;28;20056;-77
2023/05/10 09:26:58;;;;;;;8.65;5.72;;;;;;;14.12;100.00;100927.91;5035032;28;20409;-73
2023/05/10 09:29:23;;;;;;;9.38;5.55;;;;;;;14.14;100.00;100924.94;5033775;28;20036;-77
2023/05/10 09:31:51;;;;;;;6.65;5.32;;;;;;;14.20;100.00;100929.41;5031776;28;20041;-72
2023/05/10 09:34:28;;;;;;;7.22;6.00;;;;;;;14.17;100.00;100919.81;5034785;28;20071;-73
2023/05/10 09:36:56;;;;;;;8.55;5.88;;;;;;;14.21;100.00;100925.63;5018270;28;20076;-77
2023/05/10 09:39:30;;;;;;;7.63;5.90;;;;;;;14.28;100.00;100926.28;5015000;28;20092;-74
2023/05/10 09:41:55;;;;;;;9.48;6.00;;;;;;;14.28;100.00;100934.44;5015192;28;20109;-74
2023/05/10 09:44:21;;;;;;;8.15;5.88;;;;;;;14.28;100.00;100931.72;5015280;28;20109;-77
2023/05/10 09:46:51;;;;;;;8.45;5.85;;;;;;;14.30;100.00;100936.94;5034427;28;20029;-77
2023/05/10 09:49:16;;;;;;;6.60;5.40;;;;;;;14.28;100.00;100936.31;5039750;28;20025;-74
2023/05/10 09:51:42;;;;;;;7.00;4.90;;;;;;;14.26;100.00;100933.84;5036554;28;20037;-76
2023/05/10 09:54:15;;;;;;;4.28;3.78;;;;;;;14.22;100.00;100942.75;5032937;28;20029;-76
2023/05/10 09:56:41;;;;;;;5.95;3.92;;;;;;;14.18;100.00;100942.44;5048351;28;20136;-75
2023/05/10 09:59:09;;;;;;;7.75;4.18;;;;;;;14.17;100.00;100946.22;5052825;28;20028;-74
2023/05/10 10:01:34;;;;;;;4.93;3.88;;;;;;;14.20;100.00;100947.63;5030854;28;20473;-78
2023/05/10 10:04:03;;;;;;;6.60;4.07;;;;;;;14.23;100.00;100945.25;5032290;28;20116;-75
2023/05/10 10:06:29;;;;;;;3.90;3.50;;;;;;;14.22;100.00;100943.59;5032546;28;20486;-79
2023/05/10 10:08:55;;;;;;;6.18;3.85;;;;;;;14.24;100.00;100946.09;5026712;28;20120;-75
2023/05/10 10:11:23;;;;;;;5.78;3.97;;;;;;;14.24;100.00;100949.63;5032499;28;20033;-77
2023/05/10 10:13:49;;;;;;;8.00;4.20;;;;;;;14.25;100.00;100947.72;5037245;28;20060;-76
2023/05/10 10:16:14;;;;;;;7.30;3.60;;;;;;;14.26;100.00;100955.63;5034964;28;20029;-76
2023/05/10 10:18:41;;;;;;;8.23;5.30;;;;;;;14.25;100.00;100953.16;5023165;28;20038;-75
2023/05/10 10:21:08;;;;;;;7.10;4.60;;;;;;;14.31;100.00;100953.00;5033892;28;20029;-77
2023/05/10 10:23:34;;;;;;;7.35;5.32;;;;;;;14.35;100.00;100948.69;5033661;28;20022;-77
2023/05/10 10:26:00;;;;;;;7.85;5.95;;;;;;;14.41;100.00;100946.88;5033527;28;20527;-75
2023/05/10 10:29:00;;;;;;;7.35;5.80;;;;;;;14.50;100.00;100952.75;5031822;28;20029;-76
2023/05/10 10:31:28;;;;;;;7.70;5.57;;;;;;;14.51;100.00;100949.78;5045325;28;20037;-78
2023/05/10 10:34:03;;;;;;;6.90;5.10;;;;;;;14.54;100.00;100952.00;5031978;28;20029;-77
2023/05/10 10:36:29;;;;;;;7.30;5.32;;;;;;;14.59;100.00;100955.88;5016982;28;20041;-78
2023/05/10 10:38:59;;;;;;;8.25;5.90;;;;;;;14.65;100.00;100944.84;5013717;28;20029;-81
2023/05/10 10:44:46;;;;;;;7.07;5.72;;;;;;;14.81;100.00;100950.50;5032680;28;20044;-76
2023/05/10 10:47:12;;;;;;;7.68;6.13;;;;;;;14.83;100.00;100951.09;5031830;28;20025;-74
2023/05/10 10:49:47;;;;;;;7.88;6.47;;;;;;;14.92;100.00;100946.84;5032952;28;20032;-74
2023/05/10 10:52:39;;;;;;;7.70;6.10;;;;;;;14.94;100.00;100949.31;5032744;28;20116;-75
2023/05/10 10:55:05;;;;;;;;;;;;;;;15.03;100.00;100953.25;5029038;28;20160;-74
2023/05/10 10:57:48;;;;;;;8.40;6.15;;;;;;;15.00;100.00;100959.22;5032307;28;19913;-76
2023/05/10 11:00:34;;;;;;;7.18;5.55;;;;;;;14.98;100.00;100958.66;5033153;28;20026;-74
2023/05/10 11:03:14;;;;;;;7.38;5.93;;;;;;;14.98;100.00;100956.75;5033166;28;20554;-79
2023/05/10 11:05:44;;;;;;;8.68;5.78;;;;;;;15.02;100.00;100952.44;5030981;28;20148;-79
2023/05/10 11:08:11;;;;;;;8.35;5.90;;;;;;;15.23;100.00;100953.53;5041412;28;20072;-77
2023/05/10 11:10:37;;;;;;;7.13;6.25;;;;;;;15.20;100.00;100954.03;5032670;28;20529;-76
2023/05/10 11:13:05;;;;;;;6.97;6.28;;;;;;;15.08;100.00;100958.75;5031636;28;20029;-75
2023/05/10 11:15:38;;;;;;;7.53;6.25;;;;;;;14.98;100.00;100959.47;5031976;28;20454;-79
2023/05/10 11:18:23;;;;;;;9.30;6.38;;;;;;;14.93;100.00;100964.84;5033048;28;20029;-76
2023/05/10 11:21:10;;;;;;;8.70;6.20;;;;;;;14.88;100.00;100965.59;5031556;28;20389;-73
2023/05/10 11:23:44;;;;;;;7.65;6.93;;;;;;;14.84;100.00;100959.00;5039672;28;20123;-74
2023/05/10 11:26:10;;;;;;;7.82;6.55;;;;;;;14.78;100.00;100962.75;5050366;28;20033;-78
2023/05/10 11:28:47;;;;;;;7.55;6.78;;;;;;;14.80;100.00;100963.31;5034482;28;20385;-76
2023/05/10 11:31:17;;;;;;;10.10;6.85;;;;;;;14.77;100.00;100968.44;5032995;28;20112;-73
2023/05/10 11:33:47;;;;;;;7.88;5.72;;;;;;;14.73;100.00;100973.53;5032954;28;20373;-74
2023/05/10 11:36:20;;;;;;;6.20;4.72;;;;;;;14.67;100.00;100969.09;5033208;28;20049;-74
2023/05/10 11:38:46;;;;;;;5.30;4.80;;;;;;;14.59;100.00;100975.75;5036400;28;20468;-76
2023/05/10 11:41:12;;;;;;;5.68;4.68;;;;;;;14.49;100.00;100970.16;5032840;28;20029;-75
2023/05/10 11:43:41;;;;;;;6.25;5.00;;;;;;;14.48;100.00;100973.97;5032615;28;20469;-73
2023/05/10 11:46:12;;;;;;;6.60;6.00;;;;;;;14.45;100.00;100979.91;5032648;28;20037;-76
2023/05/10 11:48:44;;;;;;;8.47;7.30;;;;;;;14.42;100.00;100974.94;5030834;28;20155;-73
2023/05/10 11:51:10;;;;;;;9.65;7.88;;;;;;;14.35;100.00;100992.25;5032371;28;20037;-79
2023/05/10 11:53:37;;;;;;;7.75;7.05;;;;;;;14.16;100.00;100988.09;5030621;28;20041;-73
2023/05/10 11:56:07;;;;;;;10.55;7.82;;;;;;;13.95;100.00;100997.81;5032625;28;20026;-75
2023/05/10 11:58:33;;;;;;;12.48;8.23;;;;;;;13.73;100.00;101001.22;5032267;28;20036;-73
2023/05/10 12:00:59;;;;;;;12.30;9.45;;;;;;;13.56;100.00;101001.16;5029193;28;20112;-76
2023/05/10 12:03:25;;;;;;;11.75;9.30;;;;;;;13.39;100.00;101009.25;5032679;28;20033;-77
2023/05/10 12:05:51;;;;;;;12.35;10.60;;;;;;;13.33;100.00;101003.91;5031828;28;20156;-74
2023/05/10 12:08:22;;;;;;;10.93;9.82;;;;;;;13.20;100.00;101008.53;5044440;28;20096;-74
2023/05/10 12:10:47;;;;;;;12.15;10.85;;;;;;;13.14;100.00;101012.22;5032026;28;20423;-76
2023/05/10 12:13:14;;;;;;;14.55;11.48;;;;;;;13.15;100.00;101015.75;5031662;28;20037;-76
2023/05/10 12:15:39;;;;;;;13.85;11.20;;;;;;;13.14;100.00;101014.94;5030826;28;20068;-73
2023/05/10 12:18:05;;;;;;;14.07;11.32;;;;;;;13.11;100.00;101004.53;5031902;28;20141;-72
2023/05/10 12:20:31;;;;;;;10.75;9.65;;;;;;;13.11;100.00;101009.97;5030632;28;20120;-74
2023/05/10 12:22:58;;;;;;;7.00;6.40;;;;;;;13.03;100.00;101007.59;5040742;28;20036;-77
2023/05/10 12:25:29;;;;;;;8.43;5.93;;;;;;;13.08;100.00;101005.00;5050870;28;20380;-73
2023/05/10 12:27:56;;;;;;;5.17;4.70;;;;;;;13.06;100.00;101018.03;5052017;28;20029;-76
2023/05/10 12:30:26;;;;;;;5.82;5.13;;;;;;;13.04;100.00;101006.53;5050855;28;20302;-73
2023/05/10 12:32:53;;;;;;;6.70;6.00;;;;;;;13.02;100.00;101014.94;5050644;28;20368;-76
2023/05/10 12:35:23;;;;;;;6.43;5.82;;;;;;;13.03;100.00;101008.44;5030552;28;20182;-74
2023/05/10 12:37:49;;;;;;;6.55;5.68;;;;;;;13.01;100.00;101007.03;5050938;28;20059;-77
2023/05/10 12:40:20;;;;;;;6.80;6.15;;;;;;;13.01;100.00;101012.44;5032710;28;20037;-83
2023/05/10 12:42:46;;;;;;;;;;;;;;;13.12;100.00;101017.06;5039487;28;20392;-75
2023/05/10 12:45:12;;;;;;;7.93;7.22;;;;;;;12.99;100.00;101020.03;5038200;28;19939;-74
2023/05/10 12:47:38;;;;;;;8.77;7.75;;;;;;;12.96;100.00;101018.59;5043278;28;20037;-79
2023/05/10 12:50:04;;;;;;;9.75;8.02;;;;;;;12.95;100.00;101019.66;5030352;28;20460;-77
2023/05/10 12:52:31;;;;;;;10.77;9.43;;;;;;;13.00;100.00;101024.38;5043830;28;20116;-78
2023/05/10 12:54:57;;;;;;;11.20;9.88;;;;;;;13.00;100.00;101017.06;5038088;28;20108;-74
2023/05/10 12:57:23;;;;;;;11.52;10.32;;;;;;;12.96;100.00;101012.34;5042376;28;20151;-73
2023/05/10 12:59:48;;;;;;;12.85;11.57;;;;;;;13.00;100.00;101024.38;5033979;28;20112;-75
2023/05/10 13:02:14;;;;;;;13.02;11.48;;;;;;;12.99;100.00;101011.88;5047326;28;20029;-72
2023/05/10 13:04:40;;;;;;;14.25;12.75;;;;;;;13.00;100.00;101013.50;5047638;28;20107;-74
2023/05/10 13:07:09;;;;;;;14.57;13.15;;;;;;;13.04;100.00;101017.41;5030143;28;20029;-76
2023/05/10 13:09:35;;;;;;;17.10;14.52;;;;;;;13.12;100.00;101017.88;5035840;28;20029;-75
2023/05/10 13:12:00;;;;;;;17.35;13.95;;;;;;;13.20;100.00;101019.41;5033006;28;20527;-76
2023/05/10 13:14:26;;;;;;;16.98;14.30;;;;;;;13.26;100.00;101023.88;5035234;28;20033;-73
2023/05/10 13:16:51;;;;;;;17.42;15.25;;;;;;;13.36;100.00;101030.63;5034840;28;20431;-74
2023/05/10 13:19:17;;;;;;;17.45;15.52;;;;;;;13.43;100.00;101024.00;5034104;28;20029;-73
2023/05/10 13:21:44;;;;;;;19.83;16.48;;;;;;;13.50;100.00;101034.75;5032548;28;20457;-75
2023/05/10 13:24:25;;;;;;;;;;;;;;;;;;;;;
2023/05/10 13:26:50;;;;;;;19.02;16.75;;;;;;;13.57;100.00;101043.59;5015387;28;20397;-72
2023/05/10 13:29:17;;;;;;;20.42;16.35;;;;;;;13.56;100.00;101047.38;5019074;28;20101;-74
2023/05/10 13:31:43;;;;;;;18.15;16.33;;;;;;;13.56;100.00;101050.09;5033454;28;20072;-73
2023/05/10 13:34:08;;;;;;;19.52;17.50;;;;;;;13.59;100.00;101044.19;5031889;28;20552;-73
2023/05/10 13:36:33;;;;;;;20.52;17.83;;;;;;;13.62;100.00;101043.69;5034640;28;20080;-74
2023/05/10 13:39:01;;;;;;;20.67;18.48;;;;;;;13.58;100.00;101047.97;5034401;28;20116;-74
2023/05/10 13:41:26;;;;;;;20.13;18.08;;;;;;;13.55;100.00;101051.16;5034231;28;20057;-75
2023/05/10 13:43:51;;;;;;;19.23;15.55;;;;;;;13.50;100.00;101048.34;5031943;28;20061;-74
2023/05/10 13:46:17;;;;;;;17.50;14.10;;;;;;;13.44;100.00;101052.03;5045746;28;20041;-72
2023/05/10 13:48:45;;;;;;;18.88;15.48;;;;;;;13.33;100.00;101056.38;5032875;28;20025;-75
2023/05/10 13:51:11;;;;;;;17.38;13.30;;;;;;;13.29;100.00;101063.34;5032718;28;20461;-73
2023/05/10 13:53:36;;;;;;;16.02;13.73;;;;;;;13.23;100.00;101056.97;5030677;28;20029;-73
2023/05/10 13:56:02;;;;;;;14.38;11.25;;;;;;;13.16;100.00;101055.44;5033292;28;20025;-73
2023/05/10 13:58:28;;;;;;;15.48;12.45;;;;;;;13.09;100.00;101061.81;5031537;28;20550;-73
2023/05/10 14:00:53;;;;;;;15.63;12.38;;;;;;;13.05;100.00;101062.53;5034292;28;20033;-74
2023/05/10 14:03:18;;;;;;;13.65;11.55;;;;;;;13.04;100.00;101066.31;5040079;28;20025;-76
2023/05/10 14:06:07;;;;;;;15.40;11.95;;;;;;;13.03;100.00;101053.78;5041380;28;20037;-77
2023/05/10 14:08:34;;;;;;;15.18;11.85;;;;;;;12.97;100.00;101060.16;5024648;28;20072;-74
2023/05/10 14:10:59;;;;;;;15.68;11.75;;;;;;;12.94;100.00;101051.44;5030150;28;20473;-73
2023/05/10 14:13:25;;;;;;;14.13;12.35;;;;;;;12.91;100.00;101051.91;5031778;28;20124;-73
2023/05/10 14:15:51;;;;;;;16.30;12.90;;;;;;;12.93;100.00;101059.81;5024776;28;20390;-73
2023/05/10 14:18:16;;;;;;;13.52;12.07;;;;;;;12.99;100.00;101049.91;5038734;28;20036;-72
2023/05/10 14:20:41;;;;;;;16.23;13.43;;;;;;;13.01;100.00;101053.19;5035084;28;20045;-73
2023/05/10 14:23:07;;;;;;;18.92;15.70;;;;;;;13.07;100.00;101055.81;5031631;28;20044;-73
2023/05/10 14:25:33;;;;;;;23.23;19.25;;;;;;;13.10;100.00;101051.78;5033563;28;20473;-72
2023/05/10 14:27:58;;;;;;;19.65;16.33;;;;;;;13.10;100.00;101049.91;5032801;28;20091;-73
2023/05/10 14:30:23;;;;;;;18.50;15.02;;;;;;;13.12;100.00;101050.47;5034405;28;20358;-73
2023/05/10 14:32:48;;;;;;;18.90;15.60;;;;;;;13.16;100.00;101048.09;5053574;28;20029;-74
2023/05/10 14:35:14;;;;;;;17.38;14.40;;;;;;;13.16;100.00;101050.81;5053336;28;20111;-73
2023/05/10 14:37:39;;;;;;;18.15;14.90;;;;;;;13.23;100.00;101048.81;5052114;28;20154;-72
2023/05/10 14:40:06;;;;;;;19.92;15.77;;;;;;;13.27;100.00;101052.72;5053332;28;20032;-73
2023/05/10 14:42:31;;;;;;;19.90;15.75;;;;;;;13.30;100.00;101049.53;5053286;28;20044;-74
2023/05/10 14:44:57;;;;;;;23.02;15.32;;;;;;;13.33;100.00;101050.09;5044799;28;20038;-74
2023/05/10 14:47:22;;;;;;;15.98;13.60;;;;;;;13.29;100.00;101056.00;5052042;28;20055;-73
2023/05/10 14:49:47;;;;;;;18.10;14.60;;;;;;;13.26;100.00;101051.06;5052335;28;20484;-74
2023/05/10 14:52:33;;;;;;;20.90;14.98;;;;;;;13.28;100.00;101054.34;5052051;28;20061;-77
2023/05/10 14:55:01;;;;;;;20.50;14.27;;;;;;;13.27;100.00;101052.72;5052177;28;20115;-73
2023/05/10 14:57:29;;;;;;;19.08;15.52;;;;;;;13.30;100.00;101063.13;5046783;28;20114;-73
2023/05/10 14:59:54;;;;;;;19.00;14.27;;;;;;;13.32;100.00;101064.78;5033998;28;20385;-74
2023/05/10 15:02:19;;;;;;;15.15;13.40;;;;;;;13.22;100.00;101066.19;5027421;28;20037;-74
2023/05/10 15:04:45;;;;;;;18.75;13.20;;;;;;;13.22;100.00;101068.91;5031239;28;20057;-73
2023/05/10 15:07:14;;;;;;;17.75;13.85;;;;;;;13.27;100.00;101071.75;5013719;28;20033;-74
2023/05/10 15:09:39;;;;;;;16.63;14.05;;;;;;;13.30;100.00;101067.72;5030857;28;20174;-74
2023/05/10 15:12:04;;;;;;;16.95;14.18;;;;;;;13.24;100.00;101063.22;5033191;28;20029;-72
2023/05/10 15:14:30;;;;;;;17.85;12.82;;;;;;;13.18;100.00;101059.59;5032523;28;20071;-74
2023/05/10 15:16:55;;;;;;;15.65;13.05;;;;;;;13.20;100.00;101057.44;5033197;28;20021;-73
2023/05/10 15:19:20;;;;;;;14.90;10.93;;;;;;;13.15;100.00;101048.34;5031372;28;20030;-73
2023/05/10 15:21:47;;;;;;;14.00;11.40;;;;;;;13.11;100.00;101053.44;5020666;28;20049;-76
2023/05/10 15:24:12;;;;;;;12.13;8.85;;;;;;;13.07;100.00;101053.09;5030555;28;20048;-74
2023/05/10 15:26:37;;;;;;;10.45;7.57;;;;;;;13.12;100.00;101045.06;5036464;28;20025;-73
2023/05/10 15:29:02;;;;;;;10.05;8.20;;;;;;;13.19;100.00;101052.25;5035279;28;20112;-73
2023/05/10 15:31:28;;;;;;;13.43;9.10;;;;;;;13.22;100.00;101052.59;5038432;28;20035;-73
2023/05/10 15:33:58;;;;;;;10.77;9.50;;;;;;;13.29;100.00;101053.28;5031767;28;20033;-74
2023/05/10 15:36:24;;;;;;;13.25;10.85;;;;;;;13.34;100.00;101052.63;5031064;28;20455;-74
2023/05/10 15:38:49;;;;;;;14.75;9.77;;;;;;;13.37;100.00;101052.13;5028599;28;20108;-75
2023/05/10 15:41:14;;;;;;;12.57;9.55;;;;;;;13.40;100.00;101057.09;5032017;28;20037;-74
2023/05/10 15:43:40;;;;;;;10.52;8.82;;;;;;;13.34;100.00;101060.78;5039511;28;20043;-74
2023/05/10 15:46:05;;;;;;;12.13;9.27;;;;;;;13.30;100.00;101062.31;5034433;28;20040;-75
2023/05/10 15:48:31;;;;;;;12.38;9.10;;;;;;;13.32;100.00;101065.59;5029197;28;20423;-74
2023/05/10 15:50:56;;;;;;;11.43;9.38;;;;;;;13.25;100.00;101067.59;5040796;28;20033;-76
2023/05/10 15:53:22;;;;;;;10.25;9.05;;;;;;;13.24;100.00;101072.22;5031759;28;20088;-73
2023/05/10 15:55:47;;;;;;;12.13;10.45;;;;;;;13.26;100.00;101078.22;5029014;28;20037;-74
2023/05/10 15:58:13;;;;;;;13.00;10.10;;;;;;;13.22;100.00;101081.66;5038821;28;20078;-75
2023/05/10 16:00:38;;;;;;;13.02;10.70;;;;;;;13.19;100.00;101088.41;5028647;28;20078;-77
